createdAt,value
2022-08-29T01:41:18.186Z,1.1749999999999998
2022-08-29T01:44:20.190Z,1.1875
2022-08-29T01:47:17.296Z,0.7
2022-08-29T01:51:16.315Z,1.1375000000000002
2022-08-29T01:54:17.464Z,1.775
2022-08-29T01:57:17.050Z,1.8375
2022-08-29T02:01:21.941Z,1.275
2022-08-29T02:04:16.871Z,1.2375
2022-08-29T02:07:20.663Z,1.2375
2022-08-29T02:11:18.119Z,1.125
2022-08-29T02:14:19.672Z,1.1749999999999998
2022-08-29T02:17:16.218Z,1.475
2022-08-29T02:21:22.921Z,1.2875
2022-08-29T02:24:25.073Z,1.1125
2022-08-29T02:27:17.031Z,1.4375
2022-08-29T02:31:18.310Z,1.125
2022-08-29T02:34:17.363Z,1.075
2022-08-29T02:37:16.981Z,1.1125
2022-08-29T02:41:17.001Z,0.825
2022-08-29T02:44:17.072Z,1.4875
2022-08-29T02:47:16.853Z,1.1625
2022-08-29T02:51:19.652Z,0.7625
2022-08-29T02:54:16.257Z,0.8375
2022-08-29T02:57:16.285Z,1.1625
2022-08-29T03:01:16.398Z,0.9
2022-08-29T03:04:16.722Z,1.125
2022-08-29T03:07:16.942Z,1.3
2022-08-29T03:11:17.668Z,1
2022-08-29T03:14:16.556Z,0.8
2022-08-29T03:17:16.623Z,1.775
2022-08-29T03:51:17.765Z,0.75
2022-08-29T03:54:16.895Z,1.275
2022-08-29T03:57:16.846Z,0.9500000000000001
2022-08-29T04:01:18.504Z,0.95
2022-08-29T04:05:08.784Z,0.9875
2022-08-29T04:07:17.763Z,1.1375
2022-08-29T04:11:18.841Z,1.2000000000000002
2022-08-29T04:14:17.593Z,0.975
2022-08-29T04:17:17.534Z,1.425
2022-08-29T04:21:17.442Z,1.2125
2022-08-29T04:24:17.298Z,1.6375000000000002
2022-08-29T04:27:17.279Z,1.2
2022-08-29T04:31:20.571Z,1.5625
2022-08-29T04:34:16.752Z,1.0625
2022-08-29T04:37:16.157Z,1
2022-08-29T04:41:16.151Z,1.4375
2022-08-29T04:44:16.469Z,1.3624999999999998
2022-08-29T04:47:16.545Z,1.125
2022-08-29T04:51:16.140Z,1.5250000000000001
2022-08-29T04:54:16.380Z,1.25
2022-08-29T04:57:16.569Z,1.15
2022-08-29T05:01:18.557Z,1.6375
2022-08-29T05:04:16.494Z,1.3375
2022-08-29T05:07:16.705Z,1.3625
2022-08-29T05:11:22.699Z,1.25
2022-08-29T05:14:16.826Z,1.35
2022-08-29T05:17:16.779Z,1.55
2022-08-29T05:21:25.829Z,1.1
2022-08-29T05:24:16.397Z,1.75
2022-08-29T05:27:18.643Z,1.1
2022-08-29T05:31:16.950Z,1.0875
2022-08-29T05:34:33.836Z,1.2375
2022-08-29T05:37:19.299Z,1.4124999999999999
2022-08-29T05:41:16.894Z,1.8250000000000002
2022-08-29T05:44:16.981Z,1.5125000000000002
2022-08-29T05:47:18.127Z,0.8875000000000001
2022-08-29T05:51:18.528Z,1.3125
2022-08-29T05:54:16.950Z,1.4
2022-08-29T05:57:19.583Z,1.1
2022-08-29T06:01:23.668Z,1.275
2022-08-29T06:04:17.281Z,1.0625
2022-08-29T06:07:16.670Z,1.1124999999999998
2022-08-29T06:11:19.058Z,1.5125
2022-08-29T06:14:17.123Z,1.35
2022-08-29T06:17:17.407Z,1.5125
2022-08-29T06:21:17.172Z,1.25
2022-08-29T06:24:17.384Z,1.1500000000000001
2022-08-29T06:27:17.020Z,2.4749999999999996
2022-08-29T06:31:18.116Z,1.2125000000000001
2022-08-29T06:34:16.126Z,1.1
2022-08-29T06:37:16.251Z,1.6625
2022-08-29T06:41:17.104Z,1.6375
2022-08-29T06:44:17.881Z,1.5
2022-08-29T06:47:17.046Z,1.1875
2022-08-29T06:51:16.753Z,1.55
2022-08-29T06:54:18.080Z,1.8375000000000001
2022-08-29T06:57:16.658Z,1.9375
2022-08-29T07:01:18.689Z,1.725
2022-08-29T07:04:16.478Z,1.9125
2022-08-29T07:07:16.180Z,1.8499999999999999
2022-08-29T07:11:16.287Z,2.1625
2022-08-29T07:14:16.089Z,1.2000000000000002
2022-08-29T07:17:25.641Z,2.0374999999999996
2022-08-29T07:21:20.584Z,1.525
2022-08-29T07:24:16.461Z,1.775
2022-08-29T07:27:16.576Z,1.1124999999999998
2022-08-29T07:31:17.249Z,1.625
2022-08-29T07:34:20.601Z,1.3
2022-08-29T07:37:17.317Z,1.5625
2022-08-29T07:41:18.669Z,1.975
2022-08-29T07:44:18.055Z,1.15
2022-08-29T07:47:16.791Z,1.4875
2022-08-29T07:51:19.357Z,1.4375
2022-08-29T07:54:17.141Z,1.4749999999999999
2022-08-29T07:57:17.198Z,1.475
2022-08-29T08:01:21.545Z,1.2625000000000002
2022-08-29T08:04:16.227Z,1.25
2022-08-29T08:07:17.649Z,1.35
2022-08-29T08:11:17.366Z,1.2625
2022-08-29T08:14:16.408Z,1.2875
2022-08-29T08:17:16.910Z,1.325
2022-08-29T08:21:16.079Z,1.4125
2022-08-29T08:24:19.345Z,1.7
2022-08-29T08:27:16.038Z,0.7875
2022-08-29T08:31:18.057Z,1.0375
2022-08-29T08:34:18.416Z,1.1375000000000002
2022-08-29T08:37:24.181Z,1.4124999999999999
2022-08-29T08:41:28.755Z,1.1375
2022-08-29T08:44:42.335Z,1.25
2022-08-29T08:47:23.327Z,1.3125
2022-08-29T08:51:22.743Z,1.3375
2022-08-29T08:54:22.502Z,0.9
2022-08-29T08:57:16.199Z,1.0375
2022-08-29T09:21:39.958Z,1.2375
2022-08-29T10:01:18.984Z,2.3875
2022-08-29T10:04:37.531Z,2.1125
2022-08-29T10:11:22.303Z,2.3375
2022-08-29T10:14:28.688Z,2.475
2022-08-29T10:18:48.377Z,1.9
2022-08-29T10:41:30.709Z,1.3624999999999998
2022-08-29T10:44:28.386Z,1.6375
2022-08-29T10:47:27.312Z,1.6
2022-08-29T11:01:21.660Z,1.3125
2022-08-29T11:04:22.647Z,1.2375
2022-08-29T11:07:22.669Z,1.75
2022-08-29T11:11:19.293Z,1.5125
2022-08-29T11:14:23.642Z,1.2625000000000002
2022-08-29T11:17:18.273Z,1.5
2022-08-29T11:21:30.885Z,2.475
2022-08-29T11:24:32.949Z,1.4500000000000002
2022-08-29T11:27:31.412Z,1.5125000000000002
2022-08-29T11:31:23.978Z,2.0875
2022-08-29T11:41:27.203Z,1.15
2022-08-29T11:44:25.644Z,1.7
2022-08-29T11:47:40.852Z,1.0625
2022-08-29T11:51:36.255Z,1.275
2022-08-29T11:55:15.814Z,1.4
2022-08-29T11:57:55.167Z,1.4
2022-08-29T12:01:57.486Z,1.275
2022-08-29T12:04:50.340Z,0.75
2022-08-29T12:07:17.012Z,1.0875
2022-08-29T12:11:16.136Z,1.6625
2022-08-29T12:14:29.193Z,1.4125
2022-08-29T12:18:01.988Z,1.5375
2022-08-29T12:21:48.996Z,1.1375
2022-08-29T12:24:39.779Z,1.55
2022-08-29T12:27:57.723Z,2.0625
2022-08-29T12:32:39.850Z,1.1124999999999998
2022-08-29T12:34:32.541Z,1.0875
2022-08-29T12:37:30.603Z,1.025
2022-08-29T12:41:33.646Z,1.2
2022-08-29T12:44:24.192Z,1.1875
2022-08-29T12:47:25.276Z,1.0875
2022-08-29T12:51:35.605Z,1.025
2022-08-29T13:01:25.654Z,1.0125000000000002
2022-08-29T13:04:20.601Z,1.175
2022-08-29T13:21:23.792Z,1.4375
2022-08-29T13:41:27.587Z,1.3624999999999998
2022-08-29T13:44:18.213Z,1.0750000000000002
2022-08-29T13:47:21.004Z,1.875
2022-08-29T13:51:16.178Z,1.8625
2022-08-29T14:02:07.165Z,1.1
2022-08-29T14:11:16.490Z,1.65
2022-08-29T14:21:17.341Z,1.25
2022-08-29T14:31:16.075Z,1.275
2022-08-29T14:41:17.285Z,1.2375
2022-08-29T14:51:16.267Z,1.4375
2022-08-29T14:54:18.198Z,1.15
2022-08-29T14:57:16.952Z,1.4875
2022-08-29T15:01:16.515Z,1.15
2022-08-29T15:11:16.405Z,1.0375
2022-08-29T15:21:17.005Z,1.6625
2022-08-29T15:31:16.578Z,1.9125
2022-08-29T15:34:17.068Z,1.9125
2022-08-29T15:37:16.800Z,1.825
2022-08-29T15:41:15.576Z,1.6125
2022-08-29T15:44:21.289Z,1.6875
2022-08-29T15:47:15.864Z,2.0125
2022-08-29T15:51:16.656Z,1.7625
2022-08-29T15:54:17.224Z,1.5625
2022-08-29T15:57:16.887Z,1.8875
2022-08-29T16:01:17.133Z,1.5875
2022-08-29T16:04:18.940Z,2.3
2022-08-29T16:07:17.361Z,1.4
2022-08-29T16:11:16.402Z,1.525
2022-08-29T16:17:16.502Z,1.75
2022-08-29T16:21:16.440Z,1.7125000000000001
2022-08-29T16:24:16.460Z,1.4875
2022-08-29T16:27:17.378Z,1.45
2022-08-29T16:31:17.472Z,1.625
2022-08-29T16:34:16.568Z,1.5
2022-08-29T16:37:16.823Z,1.35
2022-08-29T16:41:18.629Z,1.975
2022-08-29T16:44:16.465Z,1.675
2022-08-29T16:47:16.245Z,1.9125
2022-08-29T16:51:19.070Z,1.7
2022-08-29T16:54:16.557Z,1.825
2022-08-29T16:57:16.344Z,1.5374999999999999
2022-08-29T17:01:17.403Z,1.8125
2022-08-29T17:04:19.273Z,1.6375
2022-08-29T17:07:16.957Z,1.5
2022-08-29T17:21:16.922Z,1.5875
2022-08-29T17:24:16.714Z,2.7375
2022-08-29T17:27:21.157Z,1.4500000000000002
2022-08-29T17:31:16.892Z,1.7875
2022-08-29T17:34:16.518Z,1.9875
2022-08-29T17:37:16.466Z,1.5375
2022-08-29T17:41:18.935Z,2.4
2022-08-29T17:44:16.413Z,1.7625
2022-08-29T17:47:16.580Z,1.9
2022-08-29T18:01:17.061Z,2.6
2022-08-29T18:04:16.581Z,2.5250000000000004
2022-08-29T18:07:17.569Z,1.7374999999999998
2022-08-29T18:11:16.719Z,2.0500000000000003
2022-08-29T18:14:21.808Z,2.125
2022-08-29T18:17:16.155Z,2.525
2022-08-29T18:21:18.450Z,2.6125
2022-08-29T18:24:16.821Z,2.3125
2022-08-29T18:27:16.107Z,1.875
2022-08-29T18:31:18.696Z,2.5125
2022-08-29T18:34:17.261Z,2.35
2022-08-29T18:37:16.806Z,2.225
2022-08-29T18:41:16.219Z,2.8875
2022-08-29T18:44:16.571Z,2.0375
2022-08-29T18:47:16.598Z,2.0625
2022-08-29T18:51:17.001Z,3.2750000000000004
2022-08-29T18:54:19.238Z,2.3125
2022-08-29T18:57:16.775Z,2.1875
2022-08-29T19:01:27.719Z,2.175
2022-08-29T19:04:16.135Z,1.7750000000000001
2022-08-29T19:07:24.194Z,1.6625
2022-08-29T19:11:16.391Z,2.9000000000000004
2022-08-29T19:14:16.563Z,1.7875
2022-08-29T19:17:17.674Z,2
2022-08-29T19:21:15.915Z,1.8375
2022-08-29T19:24:16.286Z,2.0875
2022-08-29T19:27:39.665Z,2.1
2022-08-29T19:31:16.383Z,1.85
2022-08-29T19:34:16.313Z,1.7
2022-08-29T19:37:16.289Z,2.1125
2022-08-29T19:41:16.118Z,2.1125
2022-08-29T19:44:16.263Z,2.125
2022-08-29T19:47:16.084Z,2.15
2022-08-29T19:51:18.132Z,2.1374999999999997
2022-08-29T19:54:16.666Z,2.3625
2022-08-29T19:57:16.317Z,2.2
2022-08-29T20:01:16.766Z,2.6125
2022-08-29T20:04:16.483Z,2.0250000000000004
2022-08-29T20:07:16.426Z,1.45
2022-08-29T20:11:18.931Z,2.5374999999999996
2022-08-29T20:14:16.956Z,2.425
2022-08-29T20:17:16.874Z,2.0999999999999996
2022-08-29T20:21:17.372Z,2.0875
2022-08-29T20:24:17.511Z,2.875
2022-08-29T20:27:17.126Z,1.725
2022-08-29T20:31:16.865Z,2.35
2022-08-29T20:34:17.274Z,1.9375
2022-08-29T20:37:17.127Z,1.7875
2022-08-29T20:41:21.127Z,2.075
2022-08-29T20:44:18.754Z,2.4124999999999996
2022-08-29T20:47:19.722Z,1.7874999999999999
2022-08-29T20:51:16.098Z,1.8375000000000001
2022-08-29T20:54:21.295Z,1.8875000000000002
2022-08-29T20:57:16.546Z,2.4749999999999996
2022-08-29T21:01:15.826Z,2.6375
2022-08-29T21:11:16.360Z,2.375
2022-08-29T21:14:16.267Z,2.1
2022-08-29T21:17:17.120Z,2.5
2022-08-29T21:21:16.025Z,2.4875
2022-08-29T21:24:17.165Z,2.6125
2022-08-29T21:27:16.337Z,2.1875
2022-08-29T21:31:16.817Z,2.35
2022-08-29T21:34:17.308Z,2.175
2022-08-29T21:37:16.552Z,1.9500000000000002
2022-08-29T21:41:15.969Z,2.4875
2022-08-29T21:44:17.696Z,2.1875
2022-08-29T21:47:17.950Z,2.4625000000000004
2022-08-29T21:51:19.465Z,2.5625
2022-08-29T21:54:17.485Z,3.3625
2022-08-29T22:01:16.717Z,2.2
2022-08-29T22:04:19.119Z,2.2874999999999996
2022-08-29T22:07:17.147Z,2.3125
2022-08-29T22:11:20.864Z,2.9375
2022-08-29T22:14:16.802Z,1.9749999999999999
2022-08-29T22:17:16.670Z,2.0250000000000004
2022-08-29T22:21:17.123Z,2.4375
2022-08-29T22:24:17.960Z,2.2750000000000004
2022-08-29T22:27:16.931Z,2.0625
2022-08-29T22:31:17.736Z,2.3875
2022-08-29T22:34:18.037Z,2.625
2022-08-29T22:37:17.077Z,2.3
2022-08-29T22:41:18.538Z,2.2624999999999997
2022-08-29T22:44:59.813Z,2.4625000000000004
2022-08-29T22:47:17.603Z,2.1374999999999997
2022-08-29T22:51:18.698Z,2.1375
2022-08-29T22:54:40.663Z,2.5999999999999996
2022-08-29T22:57:17.872Z,2.325
2022-08-29T23:01:16.362Z,2.7874999999999996
2022-08-29T23:04:16.707Z,2.5375
2022-08-29T23:07:17.508Z,2.175
2022-08-29T23:11:16.830Z,1.8375
2022-08-29T23:14:17.637Z,1.9125
2022-08-29T23:17:17.904Z,1.975
2022-08-29T23:21:17.640Z,2.1125
2022-08-29T23:24:17.048Z,2.0625
2022-08-29T23:27:17.208Z,2.3
2022-08-29T23:31:16.860Z,2.6624999999999996
2022-08-29T23:34:16.210Z,2.075
2022-08-29T23:37:16.044Z,1.9250000000000003
2022-08-29T23:41:16.492Z,2
2022-08-29T23:44:16.182Z,1.7875
2022-08-29T23:47:16.321Z,1.9000000000000001
2022-08-29T23:51:16.729Z,2.6750000000000003
2022-08-29T23:54:16.865Z,2.125
2022-08-29T23:57:16.807Z,1.9875
